sensor_id;sensor_type;location;lat;lon;timestamp;pressure;altitude;pressure_sealevel;temperature;humidity
64080;BME280;51042;49.696;10.808;2022-10-22T00:02:16;98123.56;;;11.62;100.00
64080;BME280;51042;49.696;10.808;2022-10-22T00:04:45;98115.19;;;11.65;100.00
64080;BME280;51042;49.696;10.808;2022-10-22T00:07:12;98119.47;;;11.66;100.00
64080;BME280;51042;49.696;10.808;2022-10-22T00:09:38;98114.72;;;11.67;100.00
64080;BME280;51042;49.696;10.808;2022-10-22T00:12:03;98117.00;;;11.68;100.00
64080;BME280;51042;49.696;10.808;2022-10-22T00:14:29;98123.59;;;11.71;100.00
64080;BME280;51042;49.696;10.808;2022-10-22T00:16:54;98120.84;;;11.71;100.00
64080;BME280;51042;49.696;10.808;2022-10-22T00:19:20;98119.22;;;11.73;100.00
64080;BME280;51042;49.696;10.808;2022-10-22T00:21:45;98123.94;;;11.73;100.00
64080;BME280;51042;49.696;10.808;2022-10-22T00:24:11;98130.09;;;11.77;100.00
64080;BME280;51042;49.696;10.808;2022-10-22T00:26:36;98134.66;;;11.80;100.00
64080;BME280;51042;49.696;10.808;2022-10-22T00:29:03;98128.88;;;11.78;100.00
64080;BME280;51042;49.696;10.808;2022-10-22T00:31:28;98133.59;;;11.77;100.00
64080;BME280;51042;49.696;10.808;2022-10-22T00:33:54;98142.63;;;11.78;100.00
64080;BME280;51042;49.696;10.808;2022-10-22T00:36:19;98130.84;;;11.77;100.00
64080;BME280;51042;49.696;10.808;2022-10-22T00:38:46;98134.03;;;11.76;100.00
64080;BME280;51042;49.696;10.808;2022-10-22T00:41:11;98127.47;;;11.73;100.00
64080;BME280;51042;49.696;10.808;2022-10-22T00:43:59;98126.69;;;11.73;100.00
64080;BME280;51042;49.696;10.808;2022-10-22T00:46:26;98129.53;;;11.69;100.00
64080;BME280;51042;49.696;10.808;2022-10-22T00:48:52;98128.34;;;11.70;100.00
64080;BME280;51042;49.696;10.808;2022-10-22T00:51:20;98120.84;;;11.71;100.00
64080;BME280;51042;49.696;10.808;2022-10-22T00:53:53;98129.09;;;11.71;100.00
64080;BME280;51042;49.696;10.808;2022-10-22T00:56:21;98135.03;;;11.69;100.00
64080;BME280;51042;49.696;10.808;2022-10-22T00:58:50;98130.31;;;11.70;100.00
64080;BME280;51042;49.696;10.808;2022-10-22T01:01:23;98122.84;;;11.70;100.00
64080;BME280;51042;49.696;10.808;2022-10-22T01:03:52;98122.84;;;11.70;100.00
64080;BME280;51042;49.696;10.808;2022-10-22T01:06:22;98120.84;;;11.71;100.00
64080;BME280;51042;49.696;10.808;2022-10-22T01:14:40;98116.72;;;11.66;100.00
64080;BME280;51042;49.696;10.808;2022-10-22T01:19:56;98114.72;;;11.67;100.00
64080;BME280;51042;49.696;10.808;2022-10-22T01:22:56;98106.16;;;11.65;100.00
64080;BME280;51042;49.696;10.808;2022-10-22T01:25:41;98102.78;;;11.61;100.00
64080;BME280;51042;49.696;10.808;2022-10-22T01:28:17;98110.69;;;11.59;100.00
64080;BME280;51042;49.696;10.808;2022-10-22T01:30:56;98109.94;;;11.58;100.00
64080;BME280;51042;49.696;10.808;2022-10-22T01:33:25;98101.34;;;11.56;100.00
64080;BME280;51042;49.696;10.808;2022-10-22T01:35:51;98094.03;;;11.53;100.00
64080;BME280;51042;49.696;10.808;2022-10-22T01:38:18;98092.81;;;11.54;100.00
64080;BME280;51042;49.696;10.808;2022-10-22T01:40:47;98085.34;;;11.55;100.00
64080;BME280;51042;49.696;10.808;2022-10-22T01:43:14;98084.13;;;11.56;100.00
64080;BME280;51042;49.696;10.808;2022-10-22T01:45:50;98090.38;;;11.56;100.00
64080;BME280;51042;49.696;10.808;2022-10-22T01:53:58;98086.47;;;11.66;100.00
64080;BME280;51042;49.696;10.808;2022-10-22T01:59:38;98084.50;;;11.67;100.00
64080;BME280;51042;49.696;10.808;2022-10-22T02:02:19;98075.47;;;11.66;100.00
64080;BME280;51042;49.696;10.808;2022-10-22T02:05:08;98069.50;;;11.68;100.00
64080;BME280;51042;49.696;10.808;2022-10-22T02:07:51;98062.50;;;11.67;100.00
64080;BME280;51042;49.696;10.808;2022-10-22T02:10:21;98070.75;;;11.67;100.00
64080;BME280;51042;49.696;10.808;2022-10-22T02:12:49;98077.13;;;11.64;100.00
64080;BME280;51042;49.696;10.808;2022-10-22T02:15:18;98076.06;;;11.61;100.00
64080;BME280;51042;49.696;10.808;2022-10-22T02:17:46;98069.16;;;11.57;100.00
64080;BME280;51042;49.696;10.808;2022-10-22T02:20:17;98074.47;;;11.51;100.00
64080;BME280;51042;49.696;10.808;2022-10-22T02:22:47;98070.06;;;11.54;100.00
64080;BME280;51042;49.696;10.808;2022-10-22T02:25:12;98075.88;;;11.56;100.00
64080;BME280;51042;49.696;10.808;2022-10-22T02:27:40;98087.63;;;11.56;100.00
64080;BME280;51042;49.696;10.808;2022-10-22T02:30:14;98089.94;;;11.58;100.00
64080;BME280;51042;49.696;10.808;2022-10-22T02:35:24;98092.84;;;11.63;100.00
64080;BME280;51042;49.696;10.808;2022-10-22T02:37:53;98090.09;;;11.63;100.00
64080;BME280;51042;49.696;10.808;2022-10-22T02:40:20;98092.75;;;11.67;100.00
64080;BME280;51042;49.696;10.808;2022-10-22T02:42:47;98101.75;;;11.67;100.00
64080;BME280;51042;49.696;10.808;2022-10-22T02:45:14;98099.31;;;11.69;100.00
64080;BME280;51042;49.696;10.808;2022-10-22T02:47:40;98093.38;;;11.71;100.00
64080;BME280;51042;49.696;10.808;2022-10-22T02:50:05;98091.81;;;11.70;100.00
64080;BME280;51042;49.696;10.808;2022-10-22T02:52:31;98103.25;;;11.68;100.00
64080;BME280;51042;49.696;10.808;2022-10-22T02:54:56;98100.50;;;11.68;100.00
64080;BME280;51042;49.696;10.808;2022-10-22T02:57:22;98100.50;;;11.68;100.00
64080;BME280;51042;49.696;10.808;2022-10-22T02:59:50;98099.31;;;11.69;100.00
64080;BME280;51042;49.696;10.808;2022-10-22T03:02:15;98102.81;;;11.70;100.00
64080;BME280;51042;49.696;10.808;2022-10-22T03:04:40;98112.28;;;11.69;100.00
64080;BME280;51042;49.696;10.808;2022-10-22T03:07:06;98104.50;;;11.67;100.00
64080;BME280;51042;49.696;10.808;2022-10-22T03:09:31;98103.72;;;11.67;100.00
64080;BME280;51042;49.696;10.808;2022-10-22T03:11:57;98118.88;;;11.71;100.00
64080;BME280;51042;49.696;10.808;2022-10-22T03:14:22;98132.72;;;11.68;100.00
64080;BME280;51042;49.696;10.808;2022-10-22T03:16:47;98133.31;;;11.63;100.00
64080;BME280;51042;49.696;10.808;2022-10-22T03:19:13;98136.84;;;11.63;100.00
64080;BME280;51042;49.696;10.808;2022-10-22T03:24:15;98110.75;;;11.68;100.00
64080;BME280;51042;49.696;10.808;2022-10-22T03:26:46;98122.06;;;11.70;100.00
64080;BME280;51042;49.696;10.808;2022-10-22T03:29:14;98125.13;;;11.72;100.00
64080;BME280;51042;49.696;10.808;2022-10-22T03:31:40;98138.78;;;11.75;100.00
64080;BME280;51042;49.696;10.808;2022-10-22T03:34:06;98131.19;;;11.79;100.00
64080;BME280;51042;49.696;10.808;2022-10-22T03:36:31;98123.56;;;11.83;100.00
64080;BME280;51042;49.696;10.808;2022-10-22T03:38:58;98122.66;;;11.86;100.00
64080;BME280;51042;49.696;10.808;2022-10-22T03:41:23;98131.22;;;11.89;100.00
64080;BME280;51042;49.696;10.808;2022-10-22T03:43:49;98137.50;;;11.89;100.00
64080;BME280;51042;49.696;10.808;2022-10-22T03:46:17;98135.19;;;11.88;100.00
64080;BME280;51042;49.696;10.808;2022-10-22T03:48:42;98133.66;;;11.86;100.00
64080;BME280;51042;49.696;10.808;2022-10-22T03:51:07;98144.63;;;11.86;100.00
64080;BME280;51042;49.696;10.808;2022-10-22T03:53:33;98154.44;;;11.88;100.00
64080;BME280;51042;49.696;10.808;2022-10-22T03:55:58;98163.88;;;11.86;100.00
64080;BME280;51042;49.696;10.808;2022-10-22T03:58:24;98165.88;;;11.86;100.00
64080;BME280;51042;49.696;10.808;2022-10-22T04:00:49;98156.41;;;11.87;100.00
64080;BME280;51042;49.696;10.808;2022-10-22T04:03:14;98166.97;;;11.89;100.00
64080;BME280;51042;49.696;10.808;2022-10-22T04:05:40;98174.31;;;11.92;100.00
64080;BME280;51042;49.696;10.808;2022-10-22T04:08:05;98174.63;;;11.94;100.00
64080;BME280;51042;49.696;10.808;2022-10-22T04:10:30;98179.69;;;11.95;100.00
64080;BME280;51042;49.696;10.808;2022-10-22T04:12:56;98182.44;;;11.95;100.00
64080;BME280;51042;49.696;10.808;2022-10-22T04:15:21;98178.91;;;11.95;100.00
64080;BME280;51042;49.696;10.808;2022-10-22T04:17:46;98174.94;;;11.96;100.00
64080;BME280;51042;49.696;10.808;2022-10-22T04:20:12;98186.72;;;11.96;100.00
64080;BME280;51042;49.696;10.808;2022-10-22T04:22:37;98182.00;;;11.97;100.00
64080;BME280;51042;49.696;10.808;2022-10-22T04:25:02;98180.75;;;11.98;100.00
64080;BME280;51042;49.696;10.808;2022-10-22T04:27:31;98188.25;;;11.97;100.00
64080;BME280;51042;49.696;10.808;2022-10-22T04:29:57;98191.00;;;11.97;100.00
64080;BME280;51042;49.696;10.808;2022-10-22T04:32:23;98193.44;;;11.95;100.00
64080;BME280;51042;49.696;10.808;2022-10-22T04:34:49;98189.91;;;11.95;100.00
64080;BME280;51042;49.696;10.808;2022-10-22T04:37:15;98192.34;;;11.93;100.00
64080;BME280;51042;49.696;10.808;2022-10-22T04:39:40;98201.06;;;11.91;100.00
64080;BME280;51042;49.696;10.808;2022-10-22T04:42:05;98199.53;;;11.90;100.00
64080;BME280;51042;49.696;10.808;2022-10-22T04:44:30;98212.94;;;11.88;100.00
64080;BME280;51042;49.696;10.808;2022-10-22T04:46:56;98220.13;;;11.85;100.00
64080;BME280;51042;49.696;10.808;2022-10-22T04:49:21;98213.06;;;11.84;100.00
64080;BME280;51042;49.696;10.808;2022-10-22T04:51:46;98218.56;;;11.84;100.00
64080;BME280;51042;49.696;10.808;2022-10-22T04:54:12;98220.22;;;11.82;100.00
64080;BME280;51042;49.696;10.808;2022-10-22T04:56:37;98220.03;;;11.76;100.00
64080;BME280;51042;49.696;10.808;2022-10-22T04:59:03;98227.63;;;11.72;100.00
64080;BME280;51042;49.696;10.808;2022-10-22T05:01:32;98226.19;;;11.68;100.00
64080;BME280;51042;49.696;10.808;2022-10-22T05:04:00;98239.44;;;11.60;100.00
64080;BME280;51042;49.696;10.808;2022-10-22T05:06:27;98225.94;;;11.53;100.00
64080;BME280;51042;49.696;10.808;2022-10-22T05:08:55;98231.56;;;11.50;100.00
64080;BME280;51042;49.696;10.808;2022-10-22T05:11:23;98237.06;;;11.50;100.00
64080;BME280;51042;49.696;10.808;2022-10-22T05:13:51;98241.13;;;11.45;100.00
64080;BME280;51042;49.696;10.808;2022-10-22T05:16:17;98234.97;;;11.41;100.00
64080;BME280;51042;49.696;10.808;2022-10-22T05:18:42;98228.94;;;11.33;100.00
64080;BME280;51042;49.696;10.808;2022-10-22T05:21:11;98239.75;;;11.28;100.00
64080;BME280;51042;49.696;10.808;2022-10-22T05:23:39;98235.59;;;11.23;100.00
64080;BME280;51042;49.696;10.808;2022-10-22T05:26:04;98233.72;;;11.20;100.00
64080;BME280;51042;49.696;10.808;2022-10-22T05:28:31;98240.44;;;11.19;100.00
64080;BME280;51042;49.696;10.808;2022-10-22T05:30:58;98240.44;;;11.19;100.00
64080;BME280;51042;49.696;10.808;2022-10-22T05:33:25;98248.34;;;11.17;100.00
64080;BME280;51042;49.696;10.808;2022-10-22T05:35:54;98248.34;;;11.17;100.00
64080;BME280;51042;49.696;10.808;2022-10-22T05:38:20;98250.31;;;11.17;100.00
64080;BME280;51042;49.696;10.808;2022-10-22T05:40:45;98248.34;;;11.17;100.00
64080;BME280;51042;49.696;10.808;2022-10-22T05:43:11;98254.59;;;11.18;100.00
64080;BME280;51042;49.696;10.808;2022-10-22T05:45:37;98251.72;;;11.21;100.00
64080;BME280;51042;49.696;10.808;2022-10-22T05:48:03;98243.81;;;11.23;100.00
64080;BME280;51042;49.696;10.808;2022-10-22T05:50:29;98249.66;;;11.25;100.00
64080;BME280;51042;49.696;10.808;2022-10-22T05:52:54;98254.38;;;11.25;100.00
64080;BME280;51042;49.696;10.808;2022-10-22T05:55:19;98273.13;;;11.26;100.00
64080;BME280;51042;49.696;10.808;2022-10-22T05:57:45;98287.66;;;11.27;100.00
64080;BME280;51042;49.696;10.808;2022-10-22T06:00:10;98300.84;;;11.32;100.00
64080;BME280;51042;49.696;10.808;2022-10-22T06:02:36;98312.47;;;11.36;100.00
64080;BME280;51042;49.696;10.808;2022-10-22T06:05:01;98319.72;;;11.42;100.00
64080;BME280;51042;49.696;10.808;2022-10-22T06:07:27;98311.47;;;11.42;100.00
64080;BME280;51042;49.696;10.808;2022-10-22T06:09:52;98320.94;;;11.41;100.00
64080;BME280;51042;49.696;10.808;2022-10-22T06:12:18;98311.59;;;11.39;100.00
64080;BME280;51042;49.696;10.808;2022-10-22T06:14:43;98315.88;;;11.40;100.00
64080;BME280;51042;49.696;10.808;2022-10-22T06:17:09;98316.66;;;11.40;100.00
64080;BME280;51042;49.696;10.808;2022-10-22T06:19:36;98322.91;;;11.41;100.00
64080;BME280;51042;49.696;10.808;2022-10-22T06:22:02;98325.22;;;11.42;100.00
64080;BME280;51042;49.696;10.808;2022-10-22T06:24:28;98330.59;;;11.46;100.00
64080;BME280;51042;49.696;10.808;2022-10-22T06:26:53;98336.00;;;11.50;100.00
64080;BME280;51042;49.696;10.808;2022-10-22T06:29:19;98335.09;;;11.53;100.00
64080;BME280;51042;49.696;10.808;2022-10-22T06:31:44;98332.22;;;11.56;100.00
64080;BME280;51042;49.696;10.808;2022-10-22T06:34:11;98334.84;;;11.60;100.00
64080;BME280;51042;49.696;10.808;2022-10-22T06:36:38;98337.47;;;11.63;100.00
64080;BME280;51042;49.696;10.808;2022-10-22T06:39:06;98342.22;;;11.63;100.00
64080;BME280;51042;49.696;10.808;2022-10-22T06:41:34;98352.00;;;11.64;100.00
64080;BME280;51042;49.696;10.808;2022-10-22T06:43:59;98350.78;;;11.65;100.00
64080;BME280;51042;49.696;10.808;2022-10-22T06:46:25;98353.53;;;11.65;100.00
64080;BME280;51042;49.696;10.808;2022-10-22T06:48:51;98347.59;;;11.66;100.00
64080;BME280;51042;49.696;10.808;2022-10-22T06:51:18;98350.34;;;11.66;100.00
64080;BME280;51042;49.696;10.808;2022-10-22T06:53:45;98366.38;;;11.68;100.00
64080;BME280;51042;49.696;10.808;2022-10-22T06:56:12;98359.81;;;11.65;100.00
64080;BME280;51042;49.696;10.808;2022-10-22T06:58:39;98358.59;;;11.66;100.00
64080;BME280;51042;49.696;10.808;2022-10-22T07:01:08;98368.25;;;11.71;100.00
64080;BME280;51042;49.696;10.808;2022-10-22T07:03:36;98380.38;;;11.73;100.00
64080;BME280;51042;49.696;10.808;2022-10-22T07:06:03;98381.13;;;11.74;100.00
64080;BME280;51042;49.696;10.808;2022-10-22T07:08:31;98379.34;;;11.80;100.00
64080;BME280;51042;49.696;10.808;2022-10-22T07:11:04;98380.03;;;11.84;100.00
64080;BME280;51042;49.696;10.808;2022-10-22T07:13:35;98381.00;;;11.90;100.00
64080;BME280;51042;49.696;10.808;2022-10-22T07:16:00;98380.78;;;11.97;100.00
64080;BME280;51042;49.696;10.808;2022-10-22T07:18:26;98377.22;;;12.09;100.00
64080;BME280;51042;49.696;10.808;2022-10-22T07:20:52;98388.03;;;12.25;100.00
64080;BME280;51042;49.696;10.808;2022-10-22T07:23:17;98392.59;;;12.41;100.00
64080;BME280;51042;49.696;10.808;2022-10-22T07:25:43;98393.31;;;12.54;100.00
64080;BME280;51042;49.696;10.808;2022-10-22T07:28:08;98401.31;;;12.61;100.00
64080;BME280;51042;49.696;10.808;2022-10-22T07:30:34;98406.41;;;12.72;100.00
64080;BME280;51042;49.696;10.808;2022-10-22T07:33:00;98413.25;;;12.89;100.00
64080;BME280;51042;49.696;10.808;2022-10-22T07:35:26;98410.41;;;13.24;100.00
64080;BME280;51042;49.696;10.808;2022-10-22T07:37:51;98411.50;;;13.26;100.00
64080;BME280;51042;49.696;10.808;2022-10-22T07:40:16;98420.75;;;13.11;100.00
64080;BME280;51042;49.696;10.808;2022-10-22T07:42:42;98411.31;;;12.99;100.00
64080;BME280;51042;49.696;10.808;2022-10-22T07:45:07;98413.25;;;12.89;100.00
64080;BME280;51042;49.696;10.808;2022-10-22T07:47:33;98416.94;;;12.86;100.00
64080;BME280;51042;49.696;10.808;2022-10-22T07:49:58;98424.72;;;12.88;100.00
64080;BME280;51042;49.696;10.808;2022-10-22T07:52:24;98426.34;;;12.98;100.00
64080;BME280;51042;49.696;10.808;2022-10-22T07:54:49;98432.78;;;13.04;100.00
64080;BME280;51042;49.696;10.808;2022-10-22T07:57:14;98430.81;;;13.04;100.00
64080;BME280;51042;49.696;10.808;2022-10-22T07:59:39;98435.25;;;13.11;100.00
64080;BME280;51042;49.696;10.808;2022-10-22T08:02:05;98434.06;;;13.34;100.00
64080;BME280;51042;49.696;10.808;2022-10-22T08:04:31;98439.00;;;13.48;100.00
64080;BME280;51042;49.696;10.808;2022-10-22T08:06:56;98439.88;;;13.85;100.00
64080;BME280;51042;49.696;10.808;2022-10-22T08:09:21;98438.88;;;14.10;100.00
64080;BME280;51042;49.696;10.808;2022-10-22T08:11:46;98440.78;;;14.40;100.00
64080;BME280;51042;49.696;10.808;2022-10-22T08:14:12;98433.69;;;14.85;100.00
64080;BME280;51042;49.696;10.808;2022-10-22T08:16:37;98431.75;;;15.36;99.73
64080;BME280;51042;49.696;10.808;2022-10-22T08:19:02;98438.69;;;15.23;92.92
64080;BME280;51042;49.696;10.808;2022-10-22T08:21:28;98445.34;;;15.07;94.95
64080;BME280;51042;49.696;10.808;2022-10-22T08:23:54;98432.59;;;14.91;94.06
64080;BME280;51042;49.696;10.808;2022-10-22T08:26:19;98444.72;;;15.12;95.77
64080;BME280;51042;49.696;10.808;2022-10-22T08:28:44;98450.66;;;15.20;94.36
64080;BME280;51042;49.696;10.808;2022-10-22T08:31:10;98457.34;;;14.95;95.41
64080;BME280;51042;49.696;10.808;2022-10-22T08:33:36;98457.34;;;14.67;95.52
64080;BME280;51042;49.696;10.808;2022-10-22T08:36:02;98453.50;;;14.56;98.36
64080;BME280;51042;49.696;10.808;2022-10-22T08:38:29;98454.81;;;15.15;96.61
64080;BME280;51042;49.696;10.808;2022-10-22T08:41:11;98451.56;;;15.77;90.75
64080;BME280;51042;49.696;10.808;2022-10-22T08:49:14;98469.56;;;16.53;87.09
64080;BME280;51042;49.696;10.808;2022-10-22T08:51:45;98466.72;;;17.00;84.50
64080;BME280;51042;49.696;10.808;2022-10-22T08:57:18;98479.16;;;17.20;83.85
64080;BME280;51042;49.696;10.808;2022-10-22T09:07:52;98490.31;;;17.10;81.73
64080;BME280;51042;49.696;10.808;2022-10-22T09:10:21;98498.28;;;17.18;83.16
64080;BME280;51042;49.696;10.808;2022-10-22T09:12:53;98494.66;;;17.26;81.84
64080;BME280;51042;49.696;10.808;2022-10-22T09:15:18;98498.53;;;17.05;81.37
64080;BME280;51042;49.696;10.808;2022-10-22T09:17:49;98491.00;;;16.91;83.96
64080;BME280;51042;49.696;10.808;2022-10-22T09:20:26;98489.31;;;16.69;84.08
64080;BME280;51042;49.696;10.808;2022-10-22T09:25:29;98483.97;;;16.66;84.67
64080;BME280;51042;49.696;10.808;2022-10-22T09:27:57;98482.84;;;16.25;85.62
64080;BME280;51042;49.696;10.808;2022-10-22T09:30:26;98475.81;;;16.62;85.34
64080;BME280;51042;49.696;10.808;2022-10-22T09:35:22;98488.63;;;16.74;84.49
64080;BME280;51042;49.696;10.808;2022-10-22T09:37:49;98481.81;;;16.99;83.37
64080;BME280;51042;49.696;10.808;2022-10-22T09:40:18;98474.41;;;16.82;82.86
64080;BME280;51042;49.696;10.808;2022-10-22T09:42:47;98483.53;;;17.11;83.54
64080;BME280;51042;49.696;10.808;2022-10-22T09:45:19;98486.53;;;17.37;81.73
64080;BME280;51042;49.696;10.808;2022-10-22T09:47:48;98484.53;;;17.67;80.34
64080;BME280;51042;49.696;10.808;2022-10-22T09:52:53;98487.25;;;17.97;78.21
64080;BME280;51042;49.696;10.808;2022-10-22T09:55:22;98487.78;;;18.01;77.73
64080;BME280;51042;49.696;10.808;2022-10-22T09:57:52;98490.97;;;17.93;78.41
64080;BME280;51042;49.696;10.808;2022-10-22T10:00:19;98488.97;;;18.29;77.92
64080;BME280;51042;49.696;10.808;2022-10-22T10:02:52;98494.53;;;18.49;75.40
64080;BME280;51042;49.696;10.808;2022-10-22T10:05:19;98495.28;;;18.50;74.73
64080;BME280;51042;49.696;10.808;2022-10-22T10:07:54;98493.97;;;18.45;75.32
64080;BME280;51042;49.696;10.808;2022-10-22T10:10:39;98493.16;;;18.59;74.24
64080;BME280;51042;49.696;10.808;2022-10-22T10:34:16;98505.97;;;18.36;74.29
64080;BME280;51042;49.696;10.808;2022-10-22T10:41:56;98512.06;;;17.85;76.44
64080;BME280;51042;49.696;10.808;2022-10-22T10:45:36;98502.31;;;17.61;78.88
64080;BME280;51042;49.696;10.808;2022-10-22T10:55:52;98515.03;;;17.52;78.95
64080;BME280;51042;49.696;10.808;2022-10-22T10:58:47;98510.25;;;17.38;80.31
64080;BME280;51042;49.696;10.808;2022-10-22T11:07:08;98525.78;;;17.74;77.15
64080;BME280;51042;49.696;10.808;2022-10-22T11:09:40;98517.75;;;17.62;78.04
64080;BME280;51042;49.696;10.808;2022-10-22T11:12:16;98521.41;;;18.03;76.56
64080;BME280;51042;49.696;10.808;2022-10-22T11:14:54;98520.19;;;18.24;75.20
64080;BME280;51042;49.696;10.808;2022-10-22T11:17:27;98519.06;;;18.51;74.95
64080;BME280;51042;49.696;10.808;2022-10-22T11:22:56;98517.22;;;18.27;74.18
64080;BME280;51042;49.696;10.808;2022-10-22T11:25:33;98523.75;;;18.24;73.75
64080;BME280;51042;49.696;10.808;2022-10-22T11:28:12;98519.47;;;19.04;72.97
64080;BME280;51042;49.696;10.808;2022-10-22T11:30:42;98512.31;;;19.75;68.66
64080;BME280;51042;49.696;10.808;2022-10-22T11:33:14;98523.13;;;19.68;69.27
64080;BME280;51042;49.696;10.808;2022-10-22T11:35:45;98522.94;;;19.45;69.45
64080;BME280;51042;49.696;10.808;2022-10-22T11:38:13;98515.25;;;19.14;69.86
64080;BME280;51042;49.696;10.808;2022-10-22T11:40:44;98520.59;;;18.92;70.29
64080;BME280;51042;49.696;10.808;2022-10-22T11:48:44;98524.28;;;19.55;69.02
64080;BME280;51042;49.696;10.808;2022-10-22T11:51:34;98518.53;;;19.13;69.53
64080;BME280;51042;49.696;10.808;2022-10-22T11:54:02;98522.13;;;19.19;70.13
64080;BME280;51042;49.696;10.808;2022-10-22T11:59:49;98524.72;;;18.56;71.81
64080;BME280;51042;49.696;10.808;2022-10-22T12:07:54;98512.47;;;18.68;71.92
64080;BME280;51042;49.696;10.808;2022-10-22T12:10:26;98517.03;;;18.92;71.29
64080;BME280;51042;49.696;10.808;2022-10-22T12:13:00;98516.63;;;18.99;71.09
64080;BME280;51042;49.696;10.808;2022-10-22T12:15:35;98514.91;;;19.27;70.54
64080;BME280;51042;49.696;10.808;2022-10-22T12:18:11;98515.81;;;19.44;69.43
64080;BME280;51042;49.696;10.808;2022-10-22T12:20:37;98516.69;;;19.04;70.52
64080;BME280;51042;49.696;10.808;2022-10-22T12:23:02;98524.94;;;18.38;73.21
64080;BME280;51042;49.696;10.808;2022-10-22T12:25:29;98514.88;;;18.41;75.24
64080;BME280;51042;49.696;10.808;2022-10-22T12:27:56;98505.53;;;18.58;71.17
64080;BME280;51042;49.696;10.808;2022-10-22T12:30:24;98506.88;;;18.48;73.06
64080;BME280;51042;49.696;10.808;2022-10-22T12:32:55;98505.81;;;18.81;71.79
64080;BME280;51042;49.696;10.808;2022-10-22T12:35:25;98498.63;;;19.20;68.81
64080;BME280;51042;49.696;10.808;2022-10-22T12:37:53;98501.44;;;19.46;69.82
64080;BME280;51042;49.696;10.808;2022-10-22T12:42:50;98507.44;;;19.65;68.48
64080;BME280;51042;49.696;10.808;2022-10-22T12:45:21;98499.13;;;19.44;69.63
64080;BME280;51042;49.696;10.808;2022-10-22T12:47:50;98504.28;;;19.31;70.06
64080;BME280;51042;49.696;10.808;2022-10-22T12:50:22;98498.13;;;18.96;70.66
64080;BME280;51042;49.696;10.808;2022-10-22T12:52:55;98497.84;;;18.53;71.21
64080;BME280;51042;49.696;10.808;2022-10-22T12:55:21;98495.06;;;18.33;71.73
64080;BME280;51042;49.696;10.808;2022-10-22T12:57:49;98488.03;;;18.17;72.26
64080;BME280;51042;49.696;10.808;2022-10-22T13:00:25;98493.66;;;18.58;72.23
64080;BME280;51042;49.696;10.808;2022-10-22T13:02:56;98487.81;;;19.02;71.33
64080;BME280;51042;49.696;10.808;2022-10-22T13:05:25;98482.81;;;19.32;70.19
64080;BME280;51042;49.696;10.808;2022-10-22T13:08:02;98482.47;;;19.50;68.43
64080;BME280;51042;49.696;10.808;2022-10-22T13:10:31;98481.00;;;19.54;67.45
64080;BME280;51042;49.696;10.808;2022-10-22T13:12:58;98488.28;;;19.46;67.59
64080;BME280;51042;49.696;10.808;2022-10-22T13:18:00;98479.38;;;19.74;66.47
64080;BME280;51042;49.696;10.808;2022-10-22T13:20:26;98484.34;;;19.90;65.96
64080;BME280;51042;49.696;10.808;2022-10-22T13:22:58;98482.56;;;19.92;66.67
64080;BME280;51042;49.696;10.808;2022-10-22T13:28:00;98472.53;;;20.06;65.53
64080;BME280;51042;49.696;10.808;2022-10-22T13:30:34;98479.66;;;20.13;65.79
64080;BME280;51042;49.696;10.808;2022-10-22T13:33:03;98484.84;;;19.94;66.51
64080;BME280;51042;49.696;10.808;2022-10-22T13:35:32;98482.31;;;19.96;65.13
64080;BME280;51042;49.696;10.808;2022-10-22T13:37:59;98488.97;;;20.04;65.37
64080;BME280;51042;49.696;10.808;2022-10-22T13:40:26;98479.06;;;20.03;65.22
64080;BME280;51042;49.696;10.808;2022-10-22T13:42:51;98480.81;;;19.95;64.12
64080;BME280;51042;49.696;10.808;2022-10-22T13:45:17;98485.75;;;19.80;65.77
64080;BME280;51042;49.696;10.808;2022-10-22T13:47:50;98481.00;;;19.86;66.75
64080;BME280;51042;49.696;10.808;2022-10-22T13:50:18;98482.94;;;19.74;65.50
64080;BME280;51042;49.696;10.808;2022-10-22T13:52:45;98481.69;;;19.75;66.08
64080;BME280;51042;49.696;10.808;2022-10-22T13:55:15;98472.31;;;19.78;65.80
64080;BME280;51042;49.696;10.808;2022-10-22T13:57:45;98469.31;;;19.82;64.94
64080;BME280;51042;49.696;10.808;2022-10-22T14:00:16;98470.81;;;19.77;66.15
64080;BME280;51042;49.696;10.808;2022-10-22T14:02:43;98482.84;;;19.63;66.22
64080;BME280;51042;49.696;10.808;2022-10-22T14:05:11;98482.63;;;19.67;66.20
64080;BME280;51042;49.696;10.808;2022-10-22T14:07:38;98482.03;;;19.57;66.83
64080;BME280;51042;49.696;10.808;2022-10-22T14:10:20;98474.13;;;19.50;66.03
64080;BME280;51042;49.696;10.808;2022-10-22T14:12:47;98484.50;;;19.49;66.67
64080;BME280;51042;49.696;10.808;2022-10-22T14:15:15;98483.19;;;19.45;67.12
64080;BME280;51042;49.696;10.808;2022-10-22T14:17:43;98484.03;;;19.51;66.92
64080;BME280;51042;49.696;10.808;2022-10-22T14:20:29;98482.84;;;19.63;66.45
64080;BME280;51042;49.696;10.808;2022-10-22T14:22:59;98478.69;;;19.84;66.43
64080;BME280;51042;49.696;10.808;2022-10-22T14:25:29;98476.69;;;19.85;66.52
64080;BME280;51042;49.696;10.808;2022-10-22T14:27:55;98474.06;;;20.07;65.53
64080;BME280;51042;49.696;10.808;2022-10-22T14:30:22;98477.63;;;20.13;65.51
64080;BME280;51042;49.696;10.808;2022-10-22T14:32:48;98476.13;;;20.18;66.02
64080;BME280;51042;49.696;10.808;2022-10-22T14:35:15;98480.13;;;20.06;66.03
64080;BME280;51042;49.696;10.808;2022-10-22T14:37:42;98480.94;;;19.80;66.85
64080;BME280;51042;49.696;10.808;2022-10-22T14:40:08;98488.88;;;19.56;68.28
64080;BME280;51042;49.696;10.808;2022-10-22T14:42:41;98495.25;;;19.36;67.95